sensor_id;sensor_type;location;lat;lon;timestamp;P1;durP1;ratioP1;P2;durP2;ratioP2
31095;SDS011;17749;51.962;8.560;2022-12-10T06:12:41;45.95;;;24.35;;
31095;SDS011;17749;51.962;8.560;2022-12-10T06:15:09;53.22;;;27.70;;
31095;SDS011;17749;51.962;8.560;2022-12-10T06:17:36;47.88;;;26.40;;
31095;SDS011;17749;51.962;8.560;2022-12-10T06:20:03;54.08;;;27.95;;
31095;SDS011;17749;51.962;8.560;2022-12-10T06:22:30;48.20;;;25.60;;
31095;SDS011;17749;51.962;8.560;2022-12-10T06:24:57;46.30;;;25.73;;
31095;SDS011;17749;51.962;8.560;2022-12-10T06:27:24;47.92;;;26.58;;
31095;SDS011;17749;51.962;8.560;2022-12-10T06:29:51;50.20;;;26.83;;
31095;SDS011;17749;51.962;8.560;2022-12-10T06:32:18;54.10;;;28.98;;
31095;SDS011;17749;51.962;8.560;2022-12-10T06:34:45;51.10;;;27.00;;
31095;SDS011;17749;51.962;8.560;2022-12-10T06:37:11;51.78;;;28.40;;
31095;SDS011;17749;51.962;8.560;2022-12-10T06:39:38;51.90;;;27.23;;
31095;SDS011;17749;51.962;8.560;2022-12-10T06:42:07;47.65;;;25.27;;
31095;SDS011;17749;51.962;8.560;2022-12-10T06:44:34;50.10;;;27.33;;
31095;SDS011;17749;51.962;8.560;2022-12-10T06:47:01;50.13;;;25.38;;
31095;SDS011;17749;51.962;8.560;2022-12-10T06:49:28;47.20;;;26.42;;
31095;SDS011;17749;51.962;8.560;2022-12-10T06:51:55;47.17;;;26.20;;
31095;SDS011;17749;51.962;8.560;2022-12-10T06:54:22;44.80;;;22.70;;
31095;SDS011;17749;51.962;8.560;2022-12-10T06:56:49;45.40;;;24.92;;
31095;SDS011;17749;51.962;8.560;2022-12-10T06:59:16;45.92;;;24.50;;
31095;SDS011;17749;51.962;8.560;2022-12-10T07:01:43;45.20;;;22.90;;
31095;SDS011;17749;51.962;8.560;2022-12-10T07:04:10;47.03;;;25.10;;
31095;SDS011;17749;51.962;8.560;2022-12-10T07:06:37;47.58;;;24.42;;
31095;SDS011;17749;51.962;8.560;2022-12-10T07:09:04;50.83;;;26.00;;
31095;SDS011;17749;51.962;8.560;2022-12-10T07:11:31;44.05;;;25.63;;
31095;SDS011;17749;51.962;8.560;2022-12-10T07:13:59;45.33;;;24.35;;
31095;SDS011;17749;51.962;8.560;2022-12-10T07:16:27;48.22;;;25.52;;
31095;SDS011;17749;51.962;8.560;2022-12-10T07:18:57;44.97;;;24.20;;
31095;SDS011;17749;51.962;8.560;2022-12-10T07:21:26;43.05;;;22.55;;
31095;SDS011;17749;51.962;8.560;2022-12-10T07:23:56;49.72;;;25.85;;
31095;SDS011;17749;51.962;8.560;2022-12-10T07:26:25;45.85;;;25.10;;
31095;SDS011;17749;51.962;8.560;2022-12-10T07:28:53;49.28;;;26.52;;
31095;SDS011;17749;51.962;8.560;2022-12-10T07:31:22;42.75;;;23.77;;
31095;SDS011;17749;51.962;8.560;2022-12-10T07:33:50;53.22;;;26.73;;
31095;SDS011;17749;51.962;8.560;2022-12-10T07:36:18;47.70;;;25.70;;
31095;SDS011;17749;51.962;8.560;2022-12-10T07:38:46;46.22;;;26.85;;
31095;SDS011;17749;51.962;8.560;2022-12-10T07:41:14;47.58;;;26.90;;
31095;SDS011;17749;51.962;8.560;2022-12-10T07:43:42;49.50;;;26.92;;
31095;SDS011;17749;51.962;8.560;2022-12-10T07:48:38;49.53;;;25.52;;
31095;SDS011;17749;51.962;8.560;2022-12-10T07:51:06;52.87;;;27.80;;
31095;SDS011;17749;51.962;8.560;2022-12-10T07:53:33;51.58;;;27.83;;
31095;SDS011;17749;51.962;8.560;2022-12-10T07:56:01;49.38;;;26.63;;
31095;SDS011;17749;51.962;8.560;2022-12-10T07:58:29;46.72;;;25.30;;
31095;SDS011;17749;51.962;8.560;2022-12-10T08:00:56;48.58;;;27.42;;
31095;SDS011;17749;51.962;8.560;2022-12-10T08:03:23;48.80;;;26.48;;
31095;SDS011;17749;51.962;8.560;2022-12-10T08:06:09;47.78;;;26.15;;
31095;SDS011;17749;51.962;8.560;2022-12-10T08:08:38;52.50;;;27.92;;
31095;SDS011;17749;51.962;8.560;2022-12-10T08:11:05;50.20;;;27.20;;
31095;SDS011;17749;51.962;8.560;2022-12-10T08:13:33;49.72;;;27.38;;
31095;SDS011;17749;51.962;8.560;2022-12-10T08:16:01;45.95;;;26.73;;
31095;SDS011;17749;51.962;8.560;2022-12-10T08:18:33;51.75;;;28.45;;
31095;SDS011;17749;51.962;8.560;2022-12-10T08:21:05;50.67;;;29.23;;
31095;SDS011;17749;51.962;8.560;2022-12-10T08:23:33;58.13;;;29.88;;
31095;SDS011;17749;51.962;8.560;2022-12-10T08:26:07;47.10;;;26.83;;
31095;SDS011;17749;51.962;8.560;2022-12-10T08:28:37;50.00;;;27.65;;
31095;SDS011;17749;51.962;8.560;2022-12-10T08:31:04;51.20;;;27.33;;
31095;SDS011;17749;51.962;8.560;2022-12-10T08:33:35;48.53;;;26.77;;
31095;SDS011;17749;51.962;8.560;2022-12-10T08:36:03;48.75;;;26.13;;
31095;SDS011;17749;51.962;8.560;2022-12-10T08:38:32;49.85;;;26.58;;
31095;SDS011;17749;51.962;8.560;2022-12-10T08:41:04;46.35;;;25.60;;
31095;SDS011;17749;51.962;8.560;2022-12-10T08:43:52;50.20;;;26.83;;
31095;SDS011;17749;51.962;8.560;2022-12-10T08:46:19;51.72;;;27.58;;
31095;SDS011;17749;51.962;8.560;2022-12-10T08:48:47;47.67;;;25.85;;
31095;SDS011;17749;51.962;8.560;2022-12-10T08:51:15;46.72;;;26.02;;
31095;SDS011;17749;51.962;8.560;2022-12-10T08:53:43;48.35;;;24.80;;
31095;SDS011;17749;51.962;8.560;2022-12-10T08:56:11;44.35;;;24.45;;
31095;SDS011;17749;51.962;8.560;2022-12-10T08:58:38;45.70;;;25.98;;
31095;SDS011;17749;51.962;8.560;2022-12-10T09:01:15;42.60;;;25.00;;
31095;SDS011;17749;51.962;8.560;2022-12-10T09:03:43;48.78;;;25.77;;
31095;SDS011;17749;51.962;8.560;2022-12-10T09:06:13;44.13;;;25.08;;
31095;SDS011;17749;51.962;8.560;2022-12-10T09:08:41;45.10;;;25.25;;
31095;SDS011;17749;51.962;8.560;2022-12-10T09:11:10;44.50;;;24.27;;
31095;SDS011;17749;51.962;8.560;2022-12-10T09:13:42;46.90;;;25.05;;
31095;SDS011;17749;51.962;8.560;2022-12-10T09:16:10;42.13;;;23.02;;
31095;SDS011;17749;51.962;8.560;2022-12-10T09:18:37;44.88;;;24.77;;
31095;SDS011;17749;51.962;8.560;2022-12-10T09:21:08;44.97;;;23.58;;
31095;SDS011;17749;51.962;8.560;2022-12-10T09:23:41;42.30;;;23.67;;
31095;SDS011;17749;51.962;8.560;2022-12-10T09:26:10;45.83;;;23.38;;
31095;SDS011;17749;51.962;8.560;2022-12-10T09:28:39;44.08;;;23.65;;
31095;SDS011;17749;51.962;8.560;2022-12-10T09:31:08;44.05;;;25.08;;
31095;SDS011;17749;51.962;8.560;2022-12-10T09:33:45;45.33;;;23.25;;
31095;SDS011;17749;51.962;8.560;2022-12-10T09:36:16;47.33;;;24.08;;
31095;SDS011;17749;51.962;8.560;2022-12-10T09:38:44;43.80;;;24.95;;
31095;SDS011;17749;51.962;8.560;2022-12-10T09:44:18;40.97;;;22.02;;
31095;SDS011;17749;51.962;8.560;2022-12-10T09:46:55;36.83;;;22.23;;
31095;SDS011;17749;51.962;8.560;2022-12-10T09:52:13;42.20;;;23.50;;
31095;SDS011;17749;51.962;8.560;2022-12-10T09:54:44;41.58;;;22.67;;
31095;SDS011;17749;51.962;8.560;2022-12-10T09:57:19;43.55;;;22.80;;
31095;SDS011;17749;51.962;8.560;2022-12-10T09:59:49;39.25;;;22.17;;
31095;SDS011;17749;51.962;8.560;2022-12-10T10:04:48;42.38;;;24.05;;
31095;SDS011;17749;51.962;8.560;2022-12-10T10:07:21;45.60;;;24.02;;
31095;SDS011;17749;51.962;8.560;2022-12-10T10:09:52;48.53;;;26.13;;
31095;SDS011;17749;51.962;8.560;2022-12-10T10:12:26;46.40;;;26.05;;
31095;SDS011;17749;51.962;8.560;2022-12-10T10:14:54;46.10;;;25.77;;
31095;SDS011;17749;51.962;8.560;2022-12-10T10:17:29;48.20;;;25.88;;
31095;SDS011;17749;51.962;8.560;2022-12-10T10:20:02;47.15;;;25.40;;
31095;SDS011;17749;51.962;8.560;2022-12-10T10:22:29;40.45;;;23.73;;
31095;SDS011;17749;51.962;8.560;2022-12-10T10:24:56;41.30;;;23.75;;
31095;SDS011;17749;51.962;8.560;2022-12-10T10:27:26;46.90;;;25.55;;
31095;SDS011;17749;51.962;8.560;2022-12-10T10:29:57;47.53;;;27.27;;
31095;SDS011;17749;51.962;8.560;2022-12-10T10:32:48;45.50;;;23.90;;
31095;SDS011;17749;51.962;8.560;2022-12-10T10:37:57;46.58;;;26.33;;
31095;SDS011;17749;51.962;8.560;2022-12-10T10:40:28;71.45;;;34.75;;
31095;SDS011;17749;51.962;8.560;2022-12-10T10:43:01;227.00;;;94.72;;
31095;SDS011;17749;51.962;8.560;2022-12-10T10:45:47;103.50;;;49.67;;
31095;SDS011;17749;51.962;8.560;2022-12-10T10:48:21;47.08;;;25.90;;
31095;SDS011;17749;51.962;8.560;2022-12-10T10:51:04;54.25;;;27.88;;
31095;SDS011;17749;51.962;8.560;2022-12-10T10:56:17;44.70;;;23.92;;
31095;SDS011;17749;51.962;8.560;2022-12-10T10:58:52;47.50;;;26.35;;
31095;SDS011;17749;51.962;8.560;2022-12-10T11:01:26;48.53;;;26.33;;
31095;SDS011;17749;51.962;8.560;2022-12-10T11:04:10;44.17;;;25.27;;
31095;SDS011;17749;51.962;8.560;2022-12-10T11:06:36;40.97;;;22.30;;
31095;SDS011;17749;51.962;8.560;2022-12-10T11:09:04;50.00;;;27.00;;
31095;SDS011;17749;51.962;8.560;2022-12-10T11:11:32;40.78;;;21.67;;
31095;SDS011;17749;51.962;8.560;2022-12-10T11:14:45;37.67;;;20.08;;
31095;SDS011;17749;51.962;8.560;2022-12-10T11:19:42;30.88;;;18.23;;
31095;SDS011;17749;51.962;8.560;2022-12-10T11:22:31;22.08;;;13.77;;
31095;SDS011;17749;51.962;8.560;2022-12-10T11:25:00;27.65;;;13.93;;
31095;SDS011;17749;51.962;8.560;2022-12-10T11:30:15;42.60;;;23.10;;
31095;SDS011;17749;51.962;8.560;2022-12-10T11:38:35;45.13;;;25.63;;
31095;SDS011;17749;51.962;8.560;2022-12-10T11:41:38;41.55;;;21.83;;
31095;SDS011;17749;51.962;8.560;2022-12-10T11:44:29;35.05;;;19.30;;
31095;SDS011;17749;51.962;8.560;2022-12-10T11:55:30;37.83;;;21.05;;
31095;SDS011;17749;51.962;8.560;2022-12-10T12:00:44;32.17;;;18.42;;
31095;SDS011;17749;51.962;8.560;2022-12-10T12:06:24;28.10;;;15.25;;
31095;SDS011;17749;51.962;8.560;2022-12-10T12:14:29;40.80;;;21.00;;
31095;SDS011;17749;51.962;8.560;2022-12-10T12:19:51;42.70;;;22.77;;
31095;SDS011;17749;51.962;8.560;2022-12-10T12:22:26;45.95;;;25.90;;
31095;SDS011;17749;51.962;8.560;2022-12-10T12:24:57;48.22;;;24.40;;
31095;SDS011;17749;51.962;8.560;2022-12-10T12:40:57;38.90;;;23.40;;
31095;SDS011;17749;51.962;8.560;2022-12-10T12:43:34;47.10;;;24.90;;
31095;SDS011;17749;51.962;8.560;2022-12-10T12:46:05;42.47;;;23.38;;
31095;SDS011;17749;51.962;8.560;2022-12-10T12:48:41;40.58;;;21.55;;
31095;SDS011;17749;51.962;8.560;2022-12-10T12:54:01;39.67;;;22.65;;
31095;SDS011;17749;51.962;8.560;2022-12-10T12:59:08;38.13;;;21.90;;
31095;SDS011;17749;51.962;8.560;2022-12-10T13:01:49;31.65;;;19.38;;
31095;SDS011;17749;51.962;8.560;2022-12-10T13:04:20;32.17;;;18.25;;
31095;SDS011;17749;51.962;8.560;2022-12-10T13:09:44;27.80;;;16.98;;
31095;SDS011;17749;51.962;8.560;2022-12-10T13:23:03;26.10;;;14.95;;
31095;SDS011;17749;51.962;8.560;2022-12-10T13:28:25;27.63;;;15.07;;
31095;SDS011;17749;51.962;8.560;2022-12-10T13:34:35;30.05;;;16.08;;
31095;SDS011;17749;51.962;8.560;2022-12-10T13:39:22;29.25;;;16.65;;
31095;SDS011;17749;51.962;8.560;2022-12-10T13:45:02;39.35;;;21.60;;
31095;SDS011;17749;51.962;8.560;2022-12-10T13:50:03;31.98;;;18.10;;
31095;SDS011;17749;51.962;8.560;2022-12-10T13:52:38;28.77;;;16.75;;
31095;SDS011;17749;51.962;8.560;2022-12-10T13:58:09;29.45;;;16.50;;
31095;SDS011;17749;51.962;8.560;2022-12-10T14:06:21;29.02;;;16.60;;
31095;SDS011;17749;51.962;8.560;2022-12-10T14:11:50;32.45;;;19.63;;
31095;SDS011;17749;51.962;8.560;2022-12-10T14:14:22;37.40;;;22.05;;
31095;SDS011;17749;51.962;8.560;2022-12-10T14:16:55;36.33;;;20.42;;
31095;SDS011;17749;51.962;8.560;2022-12-10T14:19:25;40.30;;;23.08;;
31095;SDS011;17749;51.962;8.560;2022-12-10T14:21:54;34.72;;;20.98;;
31095;SDS011;17749;51.962;8.560;2022-12-10T14:24:25;38.92;;;20.83;;
31095;SDS011;17749;51.962;8.560;2022-12-10T14:27:14;36.10;;;21.35;;
31095;SDS011;17749;51.962;8.560;2022-12-10T14:29:53;39.50;;;22.60;;
31095;SDS011;17749;51.962;8.560;2022-12-10T14:32:35;37.65;;;20.45;;
31095;SDS011;17749;51.962;8.560;2022-12-10T14:35:05;34.20;;;18.20;;
31095;SDS011;17749;51.962;8.560;2022-12-10T14:37:39;36.03;;;18.00;;
31095;SDS011;17749;51.962;8.560;2022-12-10T14:40:09;33.72;;;20.38;;
31095;SDS011;17749;51.962;8.560;2022-12-10T14:42:45;31.70;;;18.92;;
31095;SDS011;17749;51.962;8.560;2022-12-10T14:45:13;35.35;;;20.77;;
31095;SDS011;17749;51.962;8.560;2022-12-10T14:47:41;41.20;;;23.15;;
31095;SDS011;17749;51.962;8.560;2022-12-10T14:50:15;33.08;;;20.40;;
31095;SDS011;17749;51.962;8.560;2022-12-10T14:52:44;40.97;;;21.10;;
31095;SDS011;17749;51.962;8.560;2022-12-10T14:55:17;34.20;;;20.80;;
31095;SDS011;17749;51.962;8.560;2022-12-10T14:57:48;38.80;;;21.50;;
31095;SDS011;17749;51.962;8.560;2022-12-10T15:00:39;35.83;;;20.60;;
31095;SDS011;17749;51.962;8.560;2022-12-10T15:03:10;39.13;;;21.55;;
31095;SDS011;17749;51.962;8.560;2022-12-10T15:05:38;45.33;;;23.35;;
31095;SDS011;17749;51.962;8.560;2022-12-10T15:08:15;41.08;;;23.33;;
31095;SDS011;17749;51.962;8.560;2022-12-10T15:10:44;39.93;;;21.47;;
31095;SDS011;17749;51.962;8.560;2022-12-10T15:13:19;36.75;;;20.13;;
31095;SDS011;17749;51.962;8.560;2022-12-10T15:15:51;35.78;;;19.23;;
31095;SDS011;17749;51.962;8.560;2022-12-10T15:18:20;29.05;;;17.48;;
31095;SDS011;17749;51.962;8.560;2022-12-10T15:20:59;32.03;;;18.55;;
31095;SDS011;17749;51.962;8.560;2022-12-10T15:23:37;36.85;;;19.50;;
31095;SDS011;17749;51.962;8.560;2022-12-10T15:28:49;37.40;;;21.17;;
31095;SDS011;17749;51.962;8.560;2022-12-10T15:31:30;42.03;;;23.67;;
31095;SDS011;17749;51.962;8.560;2022-12-10T15:34:05;55.00;;;29.30;;
31095;SDS011;17749;51.962;8.560;2022-12-10T15:39:09;39.58;;;23.08;;
31095;SDS011;17749;51.962;8.560;2022-12-10T15:41:44;39.90;;;21.98;;
31095;SDS011;17749;51.962;8.560;2022-12-10T15:44:45;33.13;;;19.35;;
31095;SDS011;17749;51.962;8.560;2022-12-10T15:49:49;29.38;;;16.52;;
31095;SDS011;17749;51.962;8.560;2022-12-10T15:52:19;29.13;;;16.98;;
31095;SDS011;17749;51.962;8.560;2022-12-10T15:54:52;29.45;;;17.45;;
31095;SDS011;17749;51.962;8.560;2022-12-10T15:59:52;30.90;;;18.35;;
31095;SDS011;17749;51.962;8.560;2022-12-10T16:04:57;32.15;;;17.85;;
31095;SDS011;17749;51.962;8.560;2022-12-10T16:07:24;31.60;;;18.98;;
31095;SDS011;17749;51.962;8.560;2022-12-10T16:09:50;35.08;;;18.17;;
31095;SDS011;17749;51.962;8.560;2022-12-10T16:12:17;30.52;;;18.35;;
31095;SDS011;17749;51.962;8.560;2022-12-10T16:14:49;35.80;;;19.58;;
31095;SDS011;17749;51.962;8.560;2022-12-10T16:17:19;34.42;;;19.75;;
31095;SDS011;17749;51.962;8.560;2022-12-10T16:19:46;31.52;;;18.65;;
31095;SDS011;17749;51.962;8.560;2022-12-10T16:22:13;32.58;;;18.60;;
31095;SDS011;17749;51.962;8.560;2022-12-10T16:24:40;32.58;;;20.50;;
31095;SDS011;17749;51.962;8.560;2022-12-10T16:27:11;37.80;;;19.65;;
31095;SDS011;17749;51.962;8.560;2022-12-10T16:29:40;30.17;;;17.48;;
31095;SDS011;17749;51.962;8.560;2022-12-10T16:32:11;34.03;;;19.52;;
31095;SDS011;17749;51.962;8.560;2022-12-10T16:34:39;30.13;;;18.45;;
31095;SDS011;17749;51.962;8.560;2022-12-10T16:37:06;31.45;;;18.30;;
31095;SDS011;17749;51.962;8.560;2022-12-10T16:39:33;34.13;;;17.85;;
31095;SDS011;17749;51.962;8.560;2022-12-10T16:42:00;30.65;;;19.08;;
31095;SDS011;17749;51.962;8.560;2022-12-10T16:44:27;31.88;;;19.13;;
31095;SDS011;17749;51.962;8.560;2022-12-10T16:46:54;32.10;;;19.92;;
31095;SDS011;17749;51.962;8.560;2022-12-10T16:49:21;31.65;;;18.55;;
31095;SDS011;17749;51.962;8.560;2022-12-10T16:51:48;34.53;;;19.80;;
31095;SDS011;17749;51.962;8.560;2022-12-10T16:54:16;29.35;;;17.70;;
31095;SDS011;17749;51.962;8.560;2022-12-10T16:56:43;29.52;;;18.67;;
31095;SDS011;17749;51.962;8.560;2022-12-10T16:59:09;33.47;;;18.70;;
31095;SDS011;17749;51.962;8.560;2022-12-10T17:01:37;34.40;;;19.63;;
31095;SDS011;17749;51.962;8.560;2022-12-10T17:04:04;28.45;;;17.55;;
31095;SDS011;17749;51.962;8.560;2022-12-10T17:06:31;34.47;;;19.23;;
31095;SDS011;17749;51.962;8.560;2022-12-10T17:08:58;31.48;;;18.08;;
31095;SDS011;17749;51.962;8.560;2022-12-10T17:11:26;30.20;;;18.63;;
31095;SDS011;17749;51.962;8.560;2022-12-10T17:16:44;30.23;;;18.63;;
31095;SDS011;17749;51.962;8.560;2022-12-10T17:19:11;27.88;;;16.42;;
31095;SDS011;17749;51.962;8.560;2022-12-10T17:21:39;35.88;;;21.17;;
31095;SDS011;17749;51.962;8.560;2022-12-10T17:24:06;36.40;;;19.90;;
31095;SDS011;17749;51.962;8.560;2022-12-10T17:26:34;33.15;;;18.70;;
31095;SDS011;17749;51.962;8.560;2022-12-10T17:29:10;32.00;;;19.92;;
31095;SDS011;17749;51.962;8.560;2022-12-10T17:31:38;35.20;;;20.08;;
31095;SDS011;17749;51.962;8.560;2022-12-10T17:34:06;34.30;;;20.65;;
31095;SDS011;17749;51.962;8.560;2022-12-10T17:36:33;31.13;;;19.58;;
31095;SDS011;17749;51.962;8.560;2022-12-10T17:39:00;30.20;;;17.83;;
31095;SDS011;17749;51.962;8.560;2022-12-10T17:41:27;34.10;;;18.80;;
31095;SDS011;17749;51.962;8.560;2022-12-10T17:43:54;31.58;;;19.27;;
31095;SDS011;17749;51.962;8.560;2022-12-10T17:46:22;32.72;;;20.15;;
31095;SDS011;17749;51.962;8.560;2022-12-10T17:48:50;35.70;;;20.85;;
31095;SDS011;17749;51.962;8.560;2022-12-10T17:51:18;35.13;;;20.60;;
31095;SDS011;17749;51.962;8.560;2022-12-10T17:53:45;36.00;;;20.42;;
31095;SDS011;17749;51.962;8.560;2022-12-10T17:56:13;32.25;;;19.95;;
31095;SDS011;17749;51.962;8.560;2022-12-10T17:58:46;33.50;;;18.65;;
31095;SDS011;17749;51.962;8.560;2022-12-10T18:01:14;31.42;;;18.80;;
31095;SDS011;17749;51.962;8.560;2022-12-10T18:03:42;33.72;;;19.75;;
31095;SDS011;17749;51.962;8.560;2022-12-10T18:06:13;30.58;;;18.05;;
31095;SDS011;17749;51.962;8.560;2022-12-10T18:08:43;32.40;;;19.27;;
31095;SDS011;17749;51.962;8.560;2022-12-10T18:11:12;28.80;;;17.95;;
31095;SDS011;17749;51.962;8.560;2022-12-10T18:13:40;35.67;;;20.75;;
31095;SDS011;17749;51.962;8.560;2022-12-10T18:16:13;29.75;;;19.23;;
31095;SDS011;17749;51.962;8.560;2022-12-10T18:18:42;33.22;;;19.42;;
31095;SDS011;17749;51.962;8.560;2022-12-10T18:21:12;32.25;;;19.73;;
31095;SDS011;17749;51.962;8.560;2022-12-10T18:23:41;31.25;;;18.25;;
31095;SDS011;17749;51.962;8.560;2022-12-10T18:26:11;25.85;;;17.27;;
31095;SDS011;17749;51.962;8.560;2022-12-10T18:31:26;34.30;;;20.55;;
31095;SDS011;17749;51.962;8.560;2022-12-10T18:33:56;34.63;;;22.25;;
31095;SDS011;17749;51.962;8.560;2022-12-10T18:36:27;36.03;;;22.27;;
31095;SDS011;17749;51.962;8.560;2022-12-10T18:38:56;35.05;;;20.35;;
31095;SDS011;17749;51.962;8.560;2022-12-10T18:41:25;35.97;;;20.25;;
31095;SDS011;17749;51.962;8.560;2022-12-10T18:43:53;35.03;;;19.45;;
31095;SDS011;17749;51.962;8.560;2022-12-10T18:46:22;30.25;;;18.08;;
31095;SDS011;17749;51.962;8.560;2022-12-10T18:48:50;35.63;;;20.98;;
31095;SDS011;17749;51.962;8.560;2022-12-10T18:51:18;34.35;;;20.63;;
31095;SDS011;17749;51.962;8.560;2022-12-10T18:53:45;36.95;;;21.45;;
31095;SDS011;17749;51.962;8.560;2022-12-10T18:56:14;35.75;;;19.25;;
31095;SDS011;17749;51.962;8.560;2022-12-10T18:58:43;34.67;;;19.75;;
31095;SDS011;17749;51.962;8.560;2022-12-10T19:01:10;38.35;;;20.42;;
31095;SDS011;17749;51.962;8.560;2022-12-10T19:03:39;31.67;;;19.47;;
31095;SDS011;17749;51.962;8.560;2022-12-10T19:06:17;36.20;;;20.15;;
31095;SDS011;17749;51.962;8.560;2022-12-10T19:08:49;36.28;;;19.77;;
31095;SDS011;17749;51.962;8.560;2022-12-10T19:11:37;35.88;;;21.20;;
31095;SDS011;17749;51.962;8.560;2022-12-10T19:14:04;38.42;;;19.38;;
31095;SDS011;17749;51.962;8.560;2022-12-10T19:16:31;36.30;;;20.63;;
31095;SDS011;17749;51.962;8.560;2022-12-10T19:18:58;32.88;;;18.83;;
31095;SDS011;17749;51.962;8.560;2022-12-10T19:21:31;37.97;;;20.25;;
31095;SDS011;17749;51.962;8.560;2022-12-10T19:23:59;37.60;;;20.88;;
31095;SDS011;17749;51.962;8.560;2022-12-10T19:26:27;36.45;;;19.80;;
31095;SDS011;17749;51.962;8.560;2022-12-10T19:28:58;38.20;;;21.75;;
31095;SDS011;17749;51.962;8.560;2022-12-10T19:31:30;37.30;;;21.98;;
31095;SDS011;17749;51.962;8.560;2022-12-10T19:33:56;35.40;;;20.02;;
31095;SDS011;17749;51.962;8.560;2022-12-10T19:36:25;30.92;;;20.63;;
31095;SDS011;17749;51.962;8.560;2022-12-10T19:38:54;39.67;;;21.33;;
31095;SDS011;17749;51.962;8.560;2022-12-10T19:41:21;35.95;;;21.10;;
31095;SDS011;17749;51.962;8.560;2022-12-10T19:43:48;44.60;;;27.23;;
31095;SDS011;17749;51.962;8.560;2022-12-10T19:46:19;39.20;;;22.52;;
31095;SDS011;17749;51.962;8.560;2022-12-10T19:48:52;36.42;;;20.52;;
31095;SDS011;17749;51.962;8.560;2022-12-10T19:51:20;45.10;;;22.90;;
31095;SDS011;17749;51.962;8.560;2022-12-10T19:53:50;43.03;;;23.08;;
31095;SDS011;17749;51.962;8.560;2022-12-10T19:58:53;37.30;;;20.73;;
31095;SDS011;17749;51.962;8.560;2022-12-10T20:01:26;36.28;;;20.75;;
31095;SDS011;17749;51.962;8.560;2022-12-10T20:03:55;40.83;;;21.67;;
31095;SDS011;17749;51.962;8.560;2022-12-10T20:06:24;39.30;;;21.70;;
31095;SDS011;17749;51.962;8.560;2022-12-10T20:08:59;48.15;;;26.55;;
31095;SDS011;17749;51.962;8.560;2022-12-10T20:11:31;49.35;;;26.27;;
31095;SDS011;17749;51.962;8.560;2022-12-10T20:13:59;37.00;;;20.85;;
31095;SDS011;17749;51.962;8.560;2022-12-10T20:16:28;40.38;;;23.08;;
31095;SDS011;17749;51.962;8.560;2022-12-10T20:18:56;39.67;;;22.17;;
31095;SDS011;17749;51.962;8.560;2022-12-10T20:21:24;38.38;;;21.48;;
31095;SDS011;17749;51.962;8.560;2022-12-10T20:23:53;34.55;;;19.08;;
31095;SDS011;17749;51.962;8.560;2022-12-10T20:26:32;37.20;;;20.25;;
31095;SDS011;17749;51.962;8.560;2022-12-10T20:29:15;37.80;;;19.52;;
31095;SDS011;17749;51.962;8.560;2022-12-10T20:31:50;37.50;;;20.42;;
31095;SDS011;17749;51.962;8.560;2022-12-10T20:34:19;30.63;;;18.40;;
31095;SDS011;17749;51.962;8.560;2022-12-10T20:36:47;36.33;;;19.27;;
31095;SDS011;17749;51.962;8.560;2022-12-10T20:41:45;38.50;;;18.63;;
31095;SDS011;17749;51.962;8.560;2022-12-10T20:44:14;33.50;;;18.60;;
31095;SDS011;17749;51.962;8.560;2022-12-10T20:46:42;38.65;;;18.92;;
31095;SDS011;17749;51.962;8.560;2022-12-10T20:49:10;33.05;;;18.17;;
31095;SDS011;17749;51.962;8.560;2022-12-10T20:51:38;32.33;;;18.90;;
31095;SDS011;17749;51.962;8.560;2022-12-10T20:54:05;33.67;;;18.02;;
31095;SDS011;17749;51.962;8.560;2022-12-10T20:56:32;34.90;;;19.38;;
31095;SDS011;17749;51.962;8.560;2022-12-10T20:58:59;32.88;;;17.33;;
31095;SDS011;17749;51.962;8.560;2022-12-10T21:01:26;33.55;;;18.20;;
31095;SDS011;17749;51.962;8.560;2022-12-10T21:03:53;32.92;;;18.27;;
31095;SDS011;17749;51.962;8.560;2022-12-10T21:06:22;35.30;;;16.95;;
31095;SDS011;17749;51.962;8.560;2022-12-10T21:08:52;33.40;;;17.38;;
31095;SDS011;17749;51.962;8.560;2022-12-10T21:11:20;32.03;;;17.52;;
31095;SDS011;17749;51.962;8.560;2022-12-10T21:13:48;33.63;;;18.00;;
31095;SDS011;17749;51.962;8.560;2022-12-10T21:16:16;36.05;;;17.92;;
31095;SDS011;17749;51.962;8.560;2022-12-10T21:18:45;36.20;;;20.13;;
31095;SDS011;17749;51.962;8.560;2022-12-10T21:21:16;32.28;;;19.95;;
31095;SDS011;17749;51.962;8.560;2022-12-10T21:23:45;37.92;;;21.02;;
31095;SDS011;17749;51.962;8.560;2022-12-10T21:26:12;40.75;;;20.88;;
31095;SDS011;17749;51.962;8.560;2022-12-10T21:28:41;40.83;;;21.63;;
